CDT,Max TemperatureF,Mean TemperatureF,Min TemperatureF,Max Dew PointF,MeanDew PointF,Min DewpointF,Max Humidity, Mean Humidity, Min Humidity, Max Sea Level PressureIn, Mean Sea Level PressureIn, Min Sea Level PressureIn, Max VisibilityMiles, Mean VisibilityMiles, Min VisibilityMiles, Max Wind SpeedMPH, Mean Wind SpeedMPH, Max Gust SpeedMPH,PrecipitationIn, CloudCover, Events, WindDirDegrees
2012-10-1,71,62,53,55,51,45,100,72,38,30.12,30.05,29.98,10,10,10,24,8,33,0.00,2,,346
2012-10-2,77,60,42,50,44,37,100,60,27,30.13,30.03,29.91,10,10,10,13,6,,0.00,0,,220
2012-10-3,82,66,50,54,49,45,88,57,32,29.93,29.90,29.84,10,10,10,22,11,29,0.00,0,,181
2012-10-4,66,58,50,54,38,32,77,50,34,30.31,30.19,29.91,10,10,10,30,13,43,0.00,6,,32
2012-10-5,59,52,46,41,36,30,71,54,42,30.26,30.20,30.15,10,10,10,20,8,32,0.00,5,,69
2012-10-6,46,44,41,32,32,28,70,63,53,30.36,30.29,30.25,10,10,10,16,11,24,0.00,8,,68
2012-10-7,50,42,35,34,32,32,87,72,50,30.35,30.26,30.17,10,10,10,14,5,17,0.00,5,,171
2012-10-8,69,50,32,37,34,30,100,62,28,30.18,30.04,29.90,10,10,10,23,10,31,0.00,0,,209
2012-10-9,77,60,44,43,37,25,87,49,14,30.18,29.94,29.82,10,10,10,20,9,26,0.00,0,,332
2012-10-10,64,50,35,45,36,30,93,64,30,30.29,30.20,30.10,10,10,10,15,6,22,0.00,1,,141
2012-10-11,87,66,44,61,52,43,94,66,31,30.11,30.05,29.97,10,10,10,25,10,31,0.00,0,,209
2012-10-12,69,60,50,63,47,36,94,68,54,30.27,30.12,29.95,10,10,10,25,7,31,0.00,5,Rain,30
2012-10-13,77,67,57,64,49,30,100,56,20,29.94,29.86,29.77,10,10,7,34,21,46,0.01,1,Rain,238
2012-10-14,77,64,50,45,41,36,76,48,22,30.23,30.13,29.94,10,10,10,18,10,26,0.00,0,,326
2012-10-15,86,65,44,43,38,32,87,45,14,30.18,30.02,29.86,10,10,10,26,10,38,0.00,0,,220
2012-10-16,80,65,50,46,42,36,82,46,21,29.85,29.72,29.53,10,10,10,15,9,21,0.00,0,,220
2012-10-17,69,58,44,43,30,23,67,33,20,29.93,29.74,29.48,10,10,10,26,11,36,0.00,0,,351
2012-10-18,64,48,33,30,26,19,81,46,19,30.12,30.04,29.93,10,10,10,14,5,30,0.00,0,,291
2012-10-19,78,58,37,36,30,19,75,41,17,30.10,29.98,29.84,10,10,10,18,8,23,0.00,0,,220
2012-10-20,80,58,37,39,37,32,93,46,17,29.83,29.76,29.71,10,10,10,17,6,17,0.00,0,,215
2012-10-21,91,68,46,39,34,30,66,34,12,29.77,29.72,29.67,10,10,10,20,8,30,0.00,0,,231
2012-10-22,84,68,51,55,39,34,60,37,20,29.91,29.82,29.77,10,10,10,25,8,31,0.00,0,,278
2012-10-23,93,75,57,54,38,30,64,32,11,29.84,29.79,29.74,10,10,10,23,17,34,0.00,0,,218
2012-10-24,87,73,59,63,53,45,73,53,22,29.82,29.75,29.63,10,10,10,29,14,34,0.00,0,,207
2012-10-25,71,54,35,63,37,28,82,65,44,30.27,30.06,29.64,10,10,10,31,19,40,0.04,4,,9
2012-10-26,50,41,32,30,26,23,87,64,37,30.47,30.39,30.30,10,10,10,20,6,26,0.00,3,,27
2012-10-27,57,39,21,25,22,18,93,57,27,30.38,30.25,30.12,10,10,10,15,5,21,0.00,0,,181
2012-10-28,64,47,30,28,23,19,75,45,18,30.24,30.18,30.10,10,10,10,20,7,32,0.00,0,,200
2012-10-29,71,52,32,34,29,25,80,44,23,30.21,30.14,30.05,10,10,10,18,9,23,0.00,0,,203
2012-10-30,80,58,35,36,32,30,87,44,16,30.08,30.04,29.98,10,10,10,14,6,20,0.00,0,,272
2012-10-31,82,62,41,36,32,30,70,42,15,30.11,30.06,30.01,10,10,10,12,5,17,0.00,0,,239